Time;durP1;ratioP1;P1;durP2;ratioP2;P2;SDS_P1;SDS_P2;PMS_P1;PMS_P2;Temp;Humidity;BMP_temperature;BMP_pressure;BME280_temperature;BME280_humidity;BME280_pressure;Samples;Min_cycle;Max_cycle;Signal;HPM_P1;HPM_P2
2021/06/15 00:00:20;;;;;;;9.90;5.00;;;;;;;18.90;63.59;100973.38;3552076;40;20055;-50
2021/06/15 00:02:49;;;;;;;7.47;4.70;;;;;;;18.85;63.92;100975.16;3551065;40;20166;-51
2021/06/15 00:05:16;;;;;;;7.70;5.20;;;;;;;18.68;64.46;100966.53;3552464;40;20067;-54
2021/06/15 00:07:44;;;;;;;8.60;5.15;;;;;;;18.72;64.50;100973.47;3550896;40;20078;-50
2021/06/15 00:10:23;;;;;;;5.75;4.85;;;;;;;18.44;65.39;100970.94;3550982;40;20052;-50
2021/06/15 00:12:52;;;;;;;6.20;4.97;;;;;;;18.42;65.49;100962.28;3551589;40;20054;-52
2021/06/15 00:15:20;;;;;;;5.63;4.50;;;;;;;18.52;65.25;100969.16;3551806;40;20087;-52
2021/06/15 00:17:48;;;;;;;8.05;4.50;;;;;;;18.47;65.27;100968.31;3550816;40;20114;-51
2021/06/15 00:20:16;;;;;;;9.07;5.03;;;;;;;18.29;66.23;100963.16;3551995;40;20085;-51
2021/06/15 00:22:44;;;;;;;6.95;4.63;;;;;;;18.37;65.90;100963.16;3550749;40;20056;-50
2021/06/15 00:25:13;;;;;;;9.48;5.25;;;;;;;18.21;66.58;100970.09;3551009;40;20069;-54
2021/06/15 00:27:41;;;;;;;8.18;4.43;;;;;;;18.00;67.35;100969.25;3550842;40;20435;-50
2021/06/15 00:30:11;;;;;;;7.40;4.88;;;;;;;18.39;66.21;100972.66;3552317;40;20340;-52
2021/06/15 00:32:39;;;;;;;6.78;4.55;;;;;;;18.22;66.65;100966.66;3550825;40;20131;-53
2021/06/15 00:35:06;;;;;;;9.48;4.90;;;;;;;18.17;66.81;100970.97;3552196;40;20093;-52
2021/06/15 00:37:33;;;;;;;5.47;4.57;;;;;;;18.25;66.06;100966.63;3551423;40;20396;-52
2021/06/15 00:40:00;;;;;;;5.47;4.45;;;;;;;18.47;65.55;100970.91;3551784;40;20065;-52
2021/06/15 00:42:27;;;;;;;8.15;5.15;;;;;;;18.06;66.69;100963.19;3551267;40;20073;-50
2021/06/15 00:44:54;;;;;;;9.50;5.13;;;;;;;18.25;66.09;100962.28;3551607;40;20082;-50
2021/06/15 00:47:22;;;;;;;8.30;5.03;;;;;;;18.12;66.93;100964.91;3551933;40;20084;-53
2021/06/15 00:49:53;;;;;;;6.90;4.28;;;;;;;18.06;66.92;100970.97;3551265;40;20074;-52
2021/06/15 00:52:21;;;;;;;6.80;4.55;;;;;;;18.17;66.38;100969.25;3551766;40;20101;-50
2021/06/15 00:54:49;;;;;;;6.38;5.22;;;;;;;17.96;67.29;100962.34;3550867;40;20086;-50
2021/06/15 00:57:18;;;;;;;8.45;4.90;;;;;;;18.10;66.42;100964.91;3551687;40;20062;-50
2021/06/15 00:59:45;;;;;;;9.30;4.82;;;;;;;17.90;67.78;100964.94;3550756;40;20056;-50
2021/06/15 01:02:13;;;;;;;8.18;4.40;;;;;;;17.81;67.83;100964.94;3551259;40;20090;-51
2021/06/15 01:04:40;;;;;;;8.93;4.80;;;;;;;17.78;68.25;100965.78;3550245;40;20068;-53
2021/06/15 01:07:10;;;;;;;5.72;4.70;;;;;;;17.92;67.95;100960.59;3552482;40;20054;-51
2021/06/15 01:09:56;;;;;;;6.82;4.72;;;;;;;17.92;67.65;100960.59;3550509;40;20474;-52
2021/06/15 01:12:48;;;;;;;6.40;4.45;;;;;;;17.73;68.75;100953.66;3551285;40;20062;-50
2021/06/15 01:15:24;;;;;;;7.53;4.13;;;;;;;18.05;67.56;100956.28;3549565;40;20046;-51
2021/06/15 01:18:01;;;;;;;10.00;5.15;;;;;;;17.91;67.46;100952.84;3551097;40;20424;-51
2021/06/15 01:20:53;;;;;;;7.30;4.40;;;;;;;17.70;68.88;100949.38;3551198;40;20058;-50
2021/06/15 01:23:41;;;;;;;6.47;4.88;;;;;;;17.82;68.03;100951.09;3549934;40;20074;-52
2021/06/15 01:26:16;;;;;;;10.70;5.38;;;;;;;17.76;68.07;100948.53;3551498;40;20376;-51
2021/06/15 01:28:48;;;;;;;7.22;4.97;;;;;;;17.92;67.43;100951.97;3550592;40;20038;-50
2021/06/15 01:31:31;;;;;;;10.32;4.60;;;;;;;17.72;68.03;100947.63;3551077;40;20389;-52
2021/06/15 01:34:08;;;;;;;6.97;4.90;;;;;;;17.75;67.58;100949.41;3551501;40;20085;-52
2021/06/15 01:36:51;;;;;;;9.13;5.10;;;;;;;17.81;67.03;100958.03;3550742;40;20056;-55
2021/06/15 01:39:22;;;;;;;8.90;4.47;;;;;;;17.63;67.75;100947.63;3549481;40;20112;-50
2021/06/15 01:42:03;;;;;;;7.50;4.53;;;;;;;17.98;66.49;100962.31;3550745;40;20062;-50
2021/06/15 01:44:34;;;;;;;7.07;4.40;;;;;;;17.87;66.77;100957.16;3550982;40;20058;-50
2021/06/15 01:47:04;;;;;;;8.32;4.35;;;;;;;17.94;66.43;100953.72;3551409;40;20034;-50
2021/06/15 01:49:41;;;;;;;5.88;3.95;;;;;;;18.00;65.75;100953.69;3550709;40;20244;-53
2021/06/15 01:52:10;;;;;;;7.20;4.35;;;;;;;17.86;66.24;100950.25;3551461;40;20412;-52
2021/06/15 01:54:38;;;;;;;6.18;4.38;;;;;;;17.70;66.92;100946.78;3551741;40;20090;-53
2021/06/15 01:57:07;;;;;;;7.25;4.38;;;;;;;17.81;66.25;100949.38;3551772;40;20050;-51
2021/06/15 01:59:37;;;;;;;6.63;4.53;;;;;;;18.02;65.14;100956.28;3550409;40;20419;-52
2021/06/15 02:02:05;;;;;;;5.82;4.28;;;;;;;17.94;65.65;100953.72;3551859;40;20074;-51
2021/06/15 02:04:35;;;;;;;7.18;4.18;;;;;;;18.04;65.42;100947.66;3551217;40;20096;-52
2021/06/15 02:07:05;;;;;;;7.03;4.25;;;;;;;17.91;65.62;100945.94;3551921;40;20114;-50
2021/06/15 02:09:37;;;;;;;9.55;4.40;;;;;;;17.96;65.43;100949.38;3550728;40;20064;-53
2021/06/15 02:12:04;;;;;;;6.40;4.88;;;;;;;17.87;65.85;100946.78;3551924;40;20085;-54
2021/06/15 02:14:33;;;;;;;6.65;4.57;;;;;;;17.80;66.19;100940.75;3550829;40;20091;-55
2021/06/15 02:17:01;;;;;;;6.88;3.80;;;;;;;18.00;65.47;100940.75;3551683;40;20104;-52
2021/06/15 02:19:31;;;;;;;8.15;4.35;;;;;;;17.91;65.85;100943.34;3551043;40;20080;-51
2021/06/15 02:22:10;;;;;;;6.93;4.30;;;;;;;17.79;66.21;100943.31;3551458;40;20088;-51
2021/06/15 02:24:44;;;;;;;7.05;4.03;;;;;;;17.56;67.26;100938.09;3550955;40;20063;-52
2021/06/15 02:27:15;;;;;;;5.65;4.10;;;;;;;17.89;66.21;100939.91;3550744;40;20052;-50
2021/06/15 02:29:43;;;;;;;7.68;4.55;;;;;;;17.63;66.94;100937.25;3550643;40;20034;-54
2021/06/15 02:32:13;;;;;;;7.22;4.75;;;;;;;17.60;67.26;100945.00;3551951;40;20694;-55
2021/06/15 02:34:48;;;;;;;10.45;5.15;;;;;;;17.71;66.52;100943.31;3550324;40;20390;-53
2021/06/15 02:37:23;;;;;;;8.25;4.90;;;;;;;17.62;66.95;100951.06;3550919;40;20101;-55
2021/06/15 02:39:52;;;;;;;6.43;4.88;;;;;;;17.46;67.40;100942.41;3550971;40;20086;-51
2021/06/15 02:42:40;;;;;;;7.22;4.47;;;;;;;17.50;67.55;100951.91;3551147;40;20109;-50
2021/06/15 02:45:09;;;;;;;6.90;5.00;;;;;;;17.45;67.96;100952.78;3548332;40;20050;-51
2021/06/15 02:47:38;;;;;;;7.22;4.88;;;;;;;17.51;67.85;100947.59;3550317;40;20317;-52
2021/06/15 02:50:07;;;;;;;8.55;4.32;;;;;;;17.19;68.97;100948.38;3551086;40;20093;-50
2021/06/15 02:52:50;;;;;;;6.68;4.50;;;;;;;16.96;70.22;100945.75;3550665;40;20090;-50
2021/06/15 02:55:39;;;;;;;7.93;4.30;;;;;;;16.89;70.46;100953.47;3550572;40;20404;-52
2021/06/15 02:58:10;;;;;;;8.00;4.97;;;;;;;17.10;70.08;100948.41;3551030;40;20042;-50
2021/06/15 03:00:37;;;;;;;9.20;4.53;;;;;;;16.73;72.16;100947.34;3550214;40;20065;-51
2021/06/15 03:03:05;;;;;;;8.85;4.82;;;;;;;16.75;72.38;100949.09;3551338;40;20077;-52
2021/06/15 03:05:33;;;;;;;7.80;4.82;;;;;;;16.75;72.88;100956.88;3550336;40;20057;-52
2021/06/15 03:08:01;;;;;;;6.10;4.35;;;;;;;16.72;73.19;100959.44;3550975;40;20056;-51
2021/06/15 03:10:30;;;;;;;7.18;4.90;;;;;;;16.78;73.15;100963.78;3550728;40;20175;-51
2021/06/15 03:13:19;;;;;;;6.68;4.47;;;;;;;17.01;72.15;100949.22;3551242;40;20507;-53
2021/06/15 03:15:49;;;;;;;5.50;3.92;;;;;;;17.05;72.17;100955.25;3550534;40;20098;-53
2021/06/15 03:18:23;;;;;;;6.22;4.43;;;;;;;17.08;71.63;100944.06;3551512;40;20046;-51
2021/06/15 03:20:52;;;;;;;7.05;4.70;;;;;;;16.99;71.57;100960.41;3550590;40;20050;-50
2021/06/15 03:23:27;;;;;;;7.32;4.90;;;;;;;16.90;72.30;100963.81;3551128;40;20057;-52
2021/06/15 03:25:54;;;;;;;;;;;;;;;17.19;70.80;100961.31;3551511;40;20122;-55
2021/06/15 03:28:24;;;;;;;10.32;4.78;;;;;;;17.16;70.87;100963.06;3552581;40;19938;-51
2021/06/15 03:30:54;;;;;;;8.95;4.80;;;;;;;17.14;70.75;100959.59;3552269;40;20054;-53
2021/06/15 03:33:23;;;;;;;7.65;4.45;;;;;;;17.24;70.45;100963.94;3552204;40;20050;-53
2021/06/15 03:35:59;;;;;;;7.43;5.00;;;;;;;17.26;70.27;100955.31;3551756;40;20090;-52
2021/06/15 03:38:33;;;;;;;6.57;5.10;;;;;;;17.41;70.09;100961.38;3552160;40;20093;-52
2021/06/15 03:41:00;;;;;;;9.07;5.07;;;;;;;17.52;69.41;100962.28;3552543;40;20061;-50
2021/06/15 03:43:32;;;;;;;6.72;4.55;;;;;;;17.39;70.34;100965.72;3552376;40;20082;-53
2021/06/15 03:46:09;;;;;;;6.93;5.45;;;;;;;17.29;70.85;100967.41;3552577;40;20047;-51
2021/06/15 03:48:42;;;;;;;6.00;4.75;;;;;;;17.10;71.53;100969.09;3551574;40;20093;-51
2021/06/15 03:51:12;;;;;;;6.90;4.80;;;;;;;17.02;73.30;100981.13;3549934;40;20085;-52
2021/06/15 03:53:40;;;;;;;9.80;4.72;;;;;;;16.74;74.98;100982.72;3550842;40;20066;-52
2021/06/15 03:56:09;;;;;;;10.73;5.07;;;;;;;16.68;75.91;100980.91;3549886;40;20048;-51
2021/06/15 03:58:37;;;;;;;6.40;5.28;;;;;;;16.85;74.00;100981.03;3551219;40;20046;-52
2021/06/15 04:01:05;;;;;;;7.60;5.43;;;;;;;16.84;74.73;100975.88;3552593;40;20139;-52
2021/06/15 04:03:35;;;;;;;8.45;5.32;;;;;;;16.63;75.62;100987.78;3552043;40;20054;-52
2021/06/15 04:06:05;;;;;;;7.60;5.68;;;;;;;16.91;74.01;100988.81;3552737;40;20395;-50
2021/06/15 04:08:35;;;;;;;8.45;5.13;;;;;;;16.68;75.37;100975.75;3551380;40;20136;-53
2021/06/15 04:11:06;;;;;;;10.25;5.90;;;;;;;16.76;74.33;100979.28;3552223;40;20054;-50
2021/06/15 04:13:35;;;;;;;9.80;5.57;;;;;;;16.85;74.98;100985.34;3551343;40;20086;-50
2021/06/15 04:16:03;;;;;;;9.10;5.65;;;;;;;17.45;71.92;100981.25;3552674;40;20081;-52
2021/06/15 04:18:35;;;;;;;10.25;6.13;;;;;;;17.28;72.29;100984.66;3551655;40;20057;-50
2021/06/15 04:21:04;;;;;;;8.82;6.30;;;;;;;17.27;72.71;100990.69;3552173;40;20053;-54
2021/06/15 04:23:41;;;;;;;10.63;6.72;;;;;;;17.38;71.82;100980.38;3551640;40;20052;-52
2021/06/15 04:26:08;;;;;;;8.10;6.03;;;;;;;17.40;71.62;100982.97;3552301;40;20086;-51
2021/06/15 04:28:36;;;;;;;7.72;5.82;;;;;;;17.49;71.55;100983.00;3551631;40;20098;-51
2021/06/15 04:31:04;;;;;;;10.05;5.72;;;;;;;17.43;71.82;100986.44;3552281;40;20049;-52
2021/06/15 04:33:32;;;;;;;10.80;5.72;;;;;;;17.49;72.11;100989.03;3551255;40;20064;-51
2021/06/15 04:36:04;;;;;;;12.57;6.13;;;;;;;17.36;72.05;100991.59;3551877;40;20073;-51
2021/06/15 04:38:38;;;;;;;8.23;6.10;;;;;;;17.29;73.33;100988.13;3551393;40;20073;-51
2021/06/15 04:41:15;;;;;;;9.45;6.00;;;;;;;17.26;73.91;100988.97;3552841;40;20086;-54
2021/06/15 04:43:45;;;;;;;7.50;5.97;;;;;;;17.71;71.61;100995.13;3550788;40;20098;-50
2021/06/15 04:46:15;;;;;;;9.93;5.85;;;;;;;17.92;70.22;100993.44;3550556;40;20145;-52
2021/06/15 04:48:46;;;;;;;10.65;5.88;;;;;;;17.91;69.48;100987.38;3551125;40;20054;-52
2021/06/15 04:51:18;;;;;;;9.63;5.22;;;;;;;18.04;69.90;100999.47;3551228;40;20050;-53
2021/06/15 04:53:46;;;;;;;9.18;6.15;;;;;;;17.63;71.73;100991.66;3551032;40;20348;-50
2021/06/15 04:56:14;;;;;;;7.50;5.30;;;;;;;17.96;71.26;100990.84;3551312;40;20056;-53
2021/06/15 04:58:43;;;;;;;12.05;5.82;;;;;;;18.02;70.67;100996.00;3550229;40;20357;-51
2021/06/15 05:01:11;;;;;;;9.73;5.38;;;;;;;18.27;70.93;101001.19;3549295;40;20090;-55
2021/06/15 05:03:38;;;;;;;6.80;5.25;;;;;;;18.17;70.20;101002.94;3550611;40;20144;-51
2021/06/15 05:06:06;;;;;;;11.70;6.03;;;;;;;18.21;70.49;100999.50;3550315;40;20081;-50
2021/06/15 05:08:56;;;;;;;10.38;5.15;;;;;;;18.68;67.05;100995.09;3550668;40;20144;-50
2021/06/15 05:11:24;;;;;;;12.82;5.38;;;;;;;18.66;67.19;101002.00;3549638;40;20053;-52
2021/06/15 05:13:55;;;;;;;12.65;5.72;;;;;;;18.91;66.39;101006.28;3551321;40;20094;-52
2021/06/15 05:16:25;;;;;;;8.70;5.75;;;;;;;19.18;65.37;101001.81;3551670;40;20062;-55
2021/06/15 05:18:53;;;;;;;11.10;5.55;;;;;;;19.27;65.77;101007.88;3550474;40;20413;-53
2021/06/15 05:21:30;;;;;;;10.10;5.60;;;;;;;19.48;63.84;101012.06;3551874;40;20050;-53
2021/06/15 05:24:12;;;;;;;11.43;5.75;;;;;;;19.49;64.21;101012.91;3551907;40;20054;-57
2021/06/15 05:26:39;;;;;;;9.63;5.50;;;;;;;19.58;62.31;101011.13;3550758;40;20101;-53
2021/06/15 05:29:06;;;;;;;8.10;5.97;;;;;;;19.53;63.72;101012.03;3551683;40;20117;-51
2021/06/15 05:31:33;;;;;;;15.80;6.68;;;;;;;19.41;63.08;101017.28;3551274;40;20093;-51
2021/06/15 05:34:00;;;;;;;11.88;6.18;;;;;;;19.50;63.15;101007.72;3551671;40;20066;-52
2021/06/15 05:36:28;;;;;;;11.55;6.20;;;;;;;19.51;63.82;101017.25;3551621;40;20045;-52
2021/06/15 05:38:54;;;;;;;11.43;6.25;;;;;;;19.53;65.12;101018.09;3551416;40;20412;-51
2021/06/15 05:41:21;;;;;;;10.85;5.93;;;;;;;19.72;64.51;101028.41;3551749;40;20058;-52
2021/06/15 05:43:48;;;;;;;7.30;5.78;;;;;;;19.63;65.54;101021.53;3551377;40;20096;-54
2021/06/15 05:46:15;;;;;;;11.48;6.03;;;;;;;19.81;63.22;101030.94;3551952;40;20101;-55
2021/06/15 05:48:45;;;;;;;11.15;6.57;;;;;;;20.31;62.36;101034.88;3550485;40;20064;-52
2021/06/15 05:51:13;;;;;;;9.48;6.03;;;;;;;19.96;64.17;101027.34;3551684;40;20064;-51
2021/06/15 05:53:40;;;;;;;8.00;5.65;;;;;;;19.86;62.40;101018.78;3550689;40;20073;-54
2021/06/15 05:56:07;;;;;;;9.52;5.70;;;;;;;20.02;63.46;101020.41;3552274;40;20438;-53
2021/06/15 05:58:35;;;;;;;9.40;6.50;;;;;;;20.50;60.35;101026.06;3551111;40;20060;-54
2021/06/15 06:01:02;;;;;;;8.55;6.47;;;;;;;20.42;60.41;101022.63;3551447;40;20170;-54
2021/06/15 06:03:44;;;;;;;8.10;6.00;;;;;;;20.87;60.84;101028.28;3552534;40;20093;-51
2021/06/15 06:08:58;;;;;;;10.60;6.10;;;;;;;20.75;61.70;101034.50;3553359;40;20155;-54
2021/06/15 06:11:25;;;;;;;9.45;5.72;;;;;;;21.10;60.50;101033.22;3553539;40;20111;-53
2021/06/15 06:13:53;;;;;;;11.77;5.65;;;;;;;21.16;61.72;101034.88;3553554;40;20049;-52
2021/06/15 06:16:20;;;;;;;8.73;5.45;;;;;;;21.55;58.16;101033.53;3554202;40;20438;-54
2021/06/15 06:19:09;;;;;;;10.27;6.32;;;;;;;21.33;58.65;101041.63;3553780;40;20050;-50
2021/06/15 06:21:37;;;;;;;11.13;5.80;;;;;;;21.07;60.55;101049.72;3553630;40;20111;-54
2021/06/15 06:24:06;;;;;;;7.30;6.28;;;;;;;21.50;59.03;101056.19;3553813;40;20490;-53
2021/06/15 06:26:33;;;;;;;8.25;5.57;;;;;;;21.68;59.93;101058.53;3553716;40;20436;-52
2021/06/15 06:29:00;;;;;;;9.25;5.72;;;;;;;21.60;59.08;101055.16;3553968;40;20057;-52
2021/06/15 06:31:27;;;;;;;10.02;6.00;;;;;;;21.50;61.14;101061.41;3553400;40;20087;-50
2021/06/15 06:33:54;;;;;;;8.00;5.50;;;;;;;21.71;61.22;101063.69;3554046;40;20065;-52
2021/06/15 06:36:22;;;;;;;9.45;5.88;;;;;;;21.70;59.83;101058.50;3553637;40;20093;-53
2021/06/15 06:38:51;;;;;;;9.45;5.75;;;;;;;22.02;59.37;101058.03;3553576;40;20433;-52
2021/06/15 06:41:20;;;;;;;7.60;5.60;;;;;;;22.32;57.41;101059.28;3552360;40;20042;-53
2021/06/15 06:43:47;;;;;;;6.70;5.32;;;;;;;22.25;59.33;101053.34;3552199;40;20115;-53
2021/06/15 06:46:14;;;;;;;13.13;6.15;;;;;;;22.46;57.80;101044.25;3551445;40;20078;-50
2021/06/15 06:48:42;;;;;;;7.82;6.13;;;;;;;22.41;58.46;101053.06;3552345;40;20538;-55
2021/06/15 06:51:09;;;;;;;11.38;6.50;;;;;;;22.83;58.21;101049.69;3551377;40;20053;-53
2021/06/15 06:53:36;;;;;;;14.73;6.43;;;;;;;22.88;57.40;101057.44;3550342;40;20122;-50
2021/06/15 06:56:07;;;;;;;11.40;6.57;;;;;;;22.91;56.34;101051.31;3551465;40;20097;-52
2021/06/15 06:58:35;;;;;;;11.40;6.70;;;;;;;22.94;54.18;101048.63;3552051;40;20097;-56
2021/06/15 07:01:04;;;;;;;10.57;6.43;;;;;;;22.88;54.02;101047.84;3552955;40;20053;-52
2021/06/15 07:03:31;;;;;;;12.18;5.85;;;;;;;22.97;55.74;101051.16;3553345;40;20061;-53
2021/06/15 07:05:58;;;;;;;9.88;6.28;;;;;;;23.05;53.85;101049.28;3553561;40;20061;-51
2021/06/15 07:08:25;;;;;;;7.90;5.82;;;;;;;22.97;55.49;101053.78;3553290;40;20105;-50
2021/06/15 07:10:52;;;;;;;8.57;5.97;;;;;;;23.30;54.88;101044.41;3553673;40;20060;-50
2021/06/15 07:13:20;;;;;;;9.55;5.88;;;;;;;23.43;54.01;101050.22;3553641;40;20140;-53
2021/06/15 07:15:47;;;;;;;13.07;6.38;;;;;;;23.69;54.04;101053.16;3553696;40;20046;-52
2021/06/15 07:18:15;;;;;;;12.43;6.15;;;;;;;23.73;54.20;101059.19;3553463;40;20093;-51
2021/06/15 07:20:43;;;;;;;13.27;6.63;;;;;;;23.56;54.75;101060.38;3553444;40;20064;-53
2021/06/15 07:23:10;;;;;;;10.02;6.45;;;;;;;23.74;52.23;101053.03;3553021;40;20328;-51
2021/06/15 07:25:37;;;;;;;14.07;5.95;;;;;;;23.89;53.52;101061.38;3553371;40;20068;-51
2021/06/15 07:28:04;;;;;;;14.63;6.50;;;;;;;24.57;52.21;101068.47;3553533;40;20061;-52
2021/06/15 07:30:32;;;;;;;7.75;6.07;;;;;;;23.88;52.89;101064.91;3545951;40;20155;-53
2021/06/15 07:32:59;;;;;;;12.75;6.07;;;;;;;24.66;50.97;101071.75;3558288;40;20343;-54
2021/06/15 07:35:28;;;;;;;9.02;5.70;;;;;;;24.94;50.49;101064.84;3555020;40;20069;-53
2021/06/15 07:37:56;;;;;;;9.35;5.68;;;;;;;24.69;52.29;101066.44;3552968;40;20086;-50
2021/06/15 07:40:24;;;;;;;15.50;6.47;;;;;;;24.32;51.37;101062.97;3552354;40;20062;-49
2021/06/15 07:42:53;;;;;;;8.80;6.28;;;;;;;24.35;53.02;101060.25;3553341;40;20048;-52
2021/06/15 07:45:22;;;;;;;14.82;6.75;;;;;;;24.50;53.67;101063.44;3553318;40;20052;-52
2021/06/15 07:47:52;;;;;;;11.50;6.22;;;;;;;24.54;53.88;101062.44;3553727;40;20070;-53
2021/06/15 07:50:19;;;;;;;13.43;6.05;;;;;;;25.06;50.22;101063.66;3553447;40;20064;-52
2021/06/15 07:52:46;;;;;;;8.50;5.53;;;;;;;24.61;51.63;101064.00;3554265;40;20058;-53
2021/06/15 07:55:15;;;;;;;15.48;6.07;;;;;;;24.30;55.07;101066.53;3553305;40;20053;-52
2021/06/15 07:57:43;;;;;;;12.55;6.30;;;;;;;25.05;49.16;101067.16;3552802;40;20073;-52
2021/06/15 08:00:11;;;;;;;10.13;5.43;;;;;;;25.10;49.41;101067.94;3552352;40;20056;-55
2021/06/15 08:02:39;;;;;;;9.57;5.95;;;;;;;25.18;48.92;101078.19;3552278;40;20077;-49
2021/06/15 08:05:07;;;;;;;9.43;6.05;;;;;;;25.51;49.14;101084.19;3552373;40;20050;-50
2021/06/15 08:07:36;;;;;;;8.90;5.70;;;;;;;25.67;47.61;101072.34;3552395;40;20064;-50
2021/06/15 08:10:04;;;;;;;12.00;6.07;;;;;;;25.26;51.13;101078.84;3552364;40;20056;-49
2021/06/15 08:12:31;;;;;;;12.68;6.35;;;;;;;24.98;48.40;101076.13;3552417;40;20049;-51
2021/06/15 08:14:59;;;;;;;14.30;6.18;;;;;;;25.28;50.19;101077.00;3553819;40;20049;-49
2021/06/15 08:17:26;;;;;;;12.98;6.35;;;;;;;26.31;47.45;101074.72;3552925;40;20070;-49
2021/06/15 08:19:53;;;;;;;12.35;6.00;;;;;;;26.27;49.16;101076.56;3545214;40;20042;-51
2021/06/15 08:22:20;;;;;;;13.43;7.18;;;;;;;25.86;46.33;101075.28;3554452;40;20093;-50
2021/06/15 08:24:47;;;;;;;9.55;6.05;;;;;;;26.60;47.12;101079.00;3554520;40;20089;-50
2021/06/15 08:27:15;;;;;;;16.35;6.70;;;;;;;26.15;46.79;101084.84;3553639;40;20144;-50
2021/06/15 08:29:43;;;;;;;8.88;5.93;;;;;;;26.04;47.00;101085.19;3554182;40;20151;-49
2021/06/15 08:32:10;;;;;;;10.20;5.85;;;;;;;26.74;43.57;101079.38;3554079;40;20084;-50
2021/06/15 08:34:38;;;;;;;10.38;6.05;;;;;;;26.53;46.79;101080.09;3553790;40;20057;-48
2021/06/15 08:37:05;;;;;;;12.65;6.20;;;;;;;26.30;45.77;101081.72;3553300;40;20053;-48
2021/06/15 08:39:33;;;;;;;11.90;6.70;;;;;;;26.42;46.48;101085.69;3553712;40;20045;-50
2021/06/15 08:42:01;;;;;;;9.73;5.97;;;;;;;26.14;47.58;101086.63;3552107;40;20218;-53
2021/06/15 08:44:28;;;;;;;13.65;6.35;;;;;;;26.84;45.70;101077.25;3549893;40;20116;-48
2021/06/15 08:46:56;;;;;;;11.95;6.18;;;;;;;26.99;45.83;101075.84;3549443;40;20064;-48
2021/06/15 08:49:24;;;;;;;14.90;5.75;;;;;;;27.09;43.98;101079.91;3550723;40;20374;-53
2021/06/15 08:51:52;;;;;;;10.93;6.32;;;;;;;27.04;45.70;101076.53;3550219;40;20053;-52
2021/06/15 08:54:21;;;;;;;10.40;5.95;;;;;;;26.53;45.84;101081.00;3551481;40;20384;-51
2021/06/15 08:56:48;;;;;;;13.05;6.40;;;;;;;26.97;42.87;101081.16;3550295;40;20117;-51
2021/06/15 08:59:29;;;;;;;11.40;6.75;;;;;;;26.07;46.07;101082.50;3550781;40;20387;-54
2021/06/15 09:02:01;;;;;;;13.02;6.63;;;;;;;26.80;45.28;101078.28;3549938;40;20042;-53
2021/06/15 09:04:28;;;;;;;10.05;6.15;;;;;;;26.95;47.56;101079.50;3551289;40;20049;-50
2021/06/15 09:06:58;;;;;;;9.88;6.18;;;;;;;27.21;46.14;101087.31;3545042;40;20067;-49
2021/06/15 09:09:41;;;;;;;12.73;6.35;;;;;;;27.21;45.55;101081.22;3541311;40;20064;-51
2021/06/15 09:12:10;;;;;;;11.18;6.53;;;;;;;27.57;44.65;101089.50;3538802;40;20332;-52
2021/06/15 09:14:49;;;;;;;14.13;6.72;;;;;;;27.41;44.76;101087.47;3545735;40;20098;-50
2021/06/15 09:17:33;;;;;;;14.70;6.80;;;;;;;26.82;47.34;101090.47;3544238;40;20270;-53
2021/06/15 09:20:19;;;;;;;12.88;6.50;;;;;;;27.50;44.53;101094.16;3544671;40;20084;-50
2021/06/15 09:23:05;;;;;;;14.00;7.15;;;;;;;27.81;44.21;101090.31;3547524;40;20410;-54
2021/06/15 09:25:34;;;;;;;10.40;6.25;;;;;;;27.95;43.89;101105.56;3547575;40;20045;-52
2021/06/15 09:28:16;;;;;;;10.32;6.38;;;;;;;27.85;42.54;101100.69;3546953;40;20495;-52
2021/06/15 09:30:55;;;;;;;6.45;5.35;;;;;;;27.73;43.53;101102.94;3538361;40;20328;-52
2021/06/15 09:33:44;;;;;;;14.00;6.10;;;;;;;27.23;46.22;101108.34;3548056;40;20045;-51
2021/06/15 09:36:14;;;;;;;13.20;5.93;;;;;;;27.65;44.75;101103.22;3533950;40;20055;-52
2021/06/15 09:39:04;;;;;;;11.50;5.65;;;;;;;27.38;45.15;101105.97;3538906;40;20098;-52
2021/06/15 09:41:39;;;;;;;9.98;5.88;;;;;;;26.22;46.67;101106.53;3542882;40;20046;-53
2021/06/15 09:44:25;;;;;;;;;;;;;;;27.87;44.21;101112.03;3548268;40;20068;-50
2021/06/15 09:46:55;;;;;;;11.38;6.65;;;;;;;27.33;43.74;101115.81;3549216;40;19973;-50
2021/06/15 09:49:33;;;;;;;9.02;6.28;;;;;;;27.84;43.76;101120.03;3549957;40;20061;-50
2021/06/15 09:52:19;;;;;;;11.15;5.78;;;;;;;28.31;43.10;101119.03;3550310;40;20062;-50
2021/06/15 09:54:50;;;;;;;10.15;6.93;;;;;;;28.40;42.95;101124.81;3549588;40;20349;-50
2021/06/15 09:57:24;;;;;;;13.30;6.85;;;;;;;27.54;43.55;101118.53;3550835;40;20046;-50
2021/06/15 10:00:09;;;;;;;11.80;5.85;;;;;;;27.91;44.28;101115.38;3549925;40;20365;-51
2021/06/15 10:02:47;;;;;;;9.27;7.03;;;;;;;28.16;44.60;101120.53;3549711;40;20360;-51
2021/06/15 10:05:28;;;;;;;12.00;6.80;;;;;;;29.00;41.84;101122.25;3548655;40;20113;-50
2021/06/15 10:07:58;;;;;;;15.13;6.57;;;;;;;29.06;42.27;101119.34;3550183;40;20079;-51
2021/06/15 10:10:34;;;;;;;6.40;5.68;;;;;;;29.22;40.85;101127.44;3551003;40;20073;-50
2021/06/15 10:13:03;;;;;;;10.23;6.00;;;;;;;29.50;40.82;101134.09;3550567;40;20176;-50
2021/06/15 10:15:31;;;;;;;13.77;7.28;;;;;;;29.50;39.79;101128.81;3550190;40;20062;-52
2021/06/15 10:17:59;;;;;;;9.68;6.63;;;;;;;29.93;39.27;101117.09;3551884;40;20053;-51
2021/06/15 10:20:29;;;;;;;10.60;5.70;;;;;;;29.77;39.38;101124.94;3550012;40;20102;-49
2021/06/15 10:22:57;;;;;;;11.48;6.45;;;;;;;28.44;43.83;101119.41;3549162;40;20056;-51
2021/06/15 10:25:29;;;;;;;13.70;6.28;;;;;;;28.62;43.49;101116.00;3550498;40;20086;-47
2021/06/15 10:27:58;;;;;;;8.77;6.38;;;;;;;29.31;42.45;101124.38;3551083;40;20079;-50
2021/06/15 10:30:31;;;;;;;9.48;5.90;;;;;;;30.01;41.40;101122.88;3550017;40;20574;-49
2021/06/15 10:33:10;;;;;;;11.05;6.18;;;;;;;29.45;41.08;101123.75;3549253;40;20058;-53
2021/06/15 10:35:43;;;;;;;12.55;6.32;;;;;;;29.84;41.78;101121.03;3549352;40;20060;-48
2021/06/15 10:38:16;;;;;;;9.55;6.65;;;;;;;29.83;40.01;101123.75;3548013;40;20112;-50
2021/06/15 10:40:47;;;;;;;11.10;7.00;;;;;;;29.48;39.89;101122.75;3549238;40;20117;-48
2021/06/15 10:43:26;;;;;;;8.02;6.03;;;;;;;29.61;41.20;101118.63;3549761;40;20059;-48
2021/06/15 10:46:03;;;;;;;12.05;6.05;;;;;;;29.63;41.38;101111.53;3550091;40;20533;-48
2021/06/15 10:48:36;;;;;;;9.77;6.13;;;;;;;29.63;41.52;101115.00;3550035;40;20089;-47
2021/06/15 10:51:18;;;;;;;9.45;6.38;;;;;;;29.22;42.72;101114.25;3550634;40;20068;-50
2021/06/15 10:53:45;;;;;;;9.52;6.57;;;;;;;28.14;43.87;101107.38;3549350;40;20058;-49
2021/06/15 10:56:15;;;;;;;12.23;7.68;;;;;;;27.15;45.10;101109.47;3549639;40;20070;-50
2021/06/15 10:58:47;;;;;;;9.40;6.35;;;;;;;28.21;44.04;101104.53;3549018;40;20050;-49
2021/06/15 11:01:25;;;;;;;8.98;6.07;;;;;;;28.22;44.59;101108.88;3549415;40;20062;-49
2021/06/15 11:03:59;;;;;;;7.63;6.75;;;;;;;28.64;43.73;101106.22;3549751;40;20053;-54
2021/06/15 11:06:28;;;;;;;10.13;6.63;;;;;;;27.59;45.12;101106.94;3550422;40;20056;-50
2021/06/15 11:09:16;;;;;;;11.90;6.63;;;;;;;28.77;42.16;101120.59;3549887;40;20090;-54
2021/06/15 11:12:07;;;;;;;8.88;6.15;;;;;;;27.99;44.90;101112.44;3549340;40;20072;-50
2021/06/15 11:14:34;;;;;;;9.80;6.63;;;;;;;27.85;44.75;101110.34;3550042;40;20156;-48
2021/06/15 11:17:05;;;;;;;6.68;6.10;;;;;;;27.60;46.70;101105.16;3550339;40;20065;-52
2021/06/15 11:19:33;;;;;;;9.15;6.07;;;;;;;27.18;46.79;101113.75;3550265;40;20093;-49
2021/06/15 11:22:06;;;;;;;9.25;6.07;;;;;;;27.30;47.91;101115.91;3550267;40;20058;-53
2021/06/15 11:24:38;;;;;;;10.32;6.53;;;;;;;27.61;45.69;101115.63;3549892;40;20050;-51
2021/06/15 11:27:13;;;;;;;8.70;6.43;;;;;;;27.96;44.42;101110.75;3550588;40;20070;-51
2021/06/15 11:29:48;;;;;;;8.60;6.13;;;;;;;27.37;47.28;101114.78;3555770;40;20105;-53
2021/06/15 11:32:17;;;;;;;7.90;6.18;;;;;;;27.50;48.23;101112.56;3556438;40;20089;-51
2021/06/15 11:34:52;;;;;;;6.82;5.90;;;;;;;27.17;47.59;101112.88;3554090;40;20442;-54
2021/06/15 11:37:22;;;;;;;8.48;6.57;;;;;;;26.88;49.50;101123.56;3556943;40;20051;-51
2021/06/15 11:39:52;;;;;;;10.35;6.05;;;;;;;27.04;48.47;101126.47;3554782;40;20120;-55
2021/06/15 11:42:30;;;;;;;7.35;6.00;;;;;;;26.65;49.08;101119.09;3556990;40;20070;-54